createdAt,value
2022-10-05T00:00:26.686Z,6.20
2022-10-05T00:03:21.227Z,6.30
2022-10-05T00:05:55.265Z,7.50
2022-10-05T00:08:34.865Z,7.30
2022-10-05T00:11:10.047Z,7.40
2022-10-05T00:13:44.005Z,6.60
2022-10-05T00:16:20.633Z,6.80
2022-10-05T00:18:55.527Z,6.40
2022-10-05T00:21:30.580Z,8.10
2022-10-05T00:24:08.870Z,7.70
2022-10-05T00:26:42.322Z,8.10
2022-10-05T00:29:22.648Z,8.70
2022-10-05T00:31:56.942Z,8.60
2022-10-05T00:34:34.941Z,8.60
2022-10-05T00:37:09.426Z,9.00
2022-10-05T00:39:44.023Z,9.10
2022-10-05T00:42:44.860Z,9.60
2022-10-05T00:45:23.272Z,9.30
2022-10-05T00:48:07.893Z,10.60
2022-10-05T00:50:57.043Z,10.60
2022-10-05T00:53:45.382Z,10.10
2022-10-05T00:56:34.664Z,9.00
2022-10-05T00:59:20.903Z,10.80
2022-10-05T01:02:01.763Z,10.40
2022-10-05T01:04:44.743Z,9.90
2022-10-05T01:07:28.265Z,9.70
2022-10-05T01:10:09.822Z,9.70
2022-10-05T01:12:51.445Z,8.30
2022-10-05T01:15:32.399Z,9.10
2022-10-05T01:18:39.427Z,8.90
2022-10-05T01:21:21.223Z,8.70
2022-10-05T01:24:09.540Z,7.60
2022-10-05T01:27:23.418Z,8.10
2022-10-05T01:30:03.129Z,7.50
2022-10-05T01:32:43.649Z,7.20
2022-10-05T01:35:40.999Z,7.10
2022-10-05T01:38:30.657Z,7.40
2022-10-05T01:41:13.557Z,7.40
2022-10-05T01:43:51.167Z,7.30
2022-10-05T01:46:33.602Z,7.90
2022-10-05T01:49:25.606Z,7.30
2022-10-05T01:52:10.672Z,6.80
2022-10-05T01:54:59.492Z,6.20
2022-10-05T01:57:45.483Z,6.70
2022-10-05T02:00:21.472Z,7.10
2022-10-05T02:03:03.463Z,7.70
2022-10-05T02:05:46.453Z,7.70
2022-10-05T02:08:28.991Z,6.30
2022-10-05T02:11:07.828Z,7.50
2022-10-05T02:13:45.287Z,7.00
2022-10-05T02:16:25.318Z,7.00
2022-10-05T02:19:04.116Z,6.20
2022-10-05T02:21:38.219Z,6.50
2022-10-05T02:24:15.513Z,7.10
2022-10-05T02:26:50.379Z,6.20
2022-10-05T02:29:26.172Z,7.00
2022-10-05T02:32:03.456Z,7.90
2022-10-05T02:34:41.869Z,6.60
2022-10-05T02:37:26.940Z,6.40
2022-10-05T02:40:25.283Z,6.80
2022-10-05T02:43:08.576Z,7.20
2022-10-05T02:45:52.619Z,6.50
2022-10-05T02:48:35.843Z,7.20
2022-10-05T02:51:18.053Z,7.10
2022-10-05T02:54:02.957Z,7.50
2022-10-05T02:56:45.119Z,7.10
2022-10-05T02:59:27.587Z,6.80
2022-10-05T03:02:09.175Z,7.30
2022-10-05T03:04:50.352Z,7.70
2022-10-05T03:07:31.327Z,7.60
2022-10-05T03:10:11.522Z,8.00
2022-10-05T03:13:02.585Z,7.90
2022-10-05T03:16:02.040Z,8.10
2022-10-05T03:18:50.455Z,7.20
2022-10-05T03:21:41.180Z,8.10
2022-10-05T03:24:41.653Z,8.90
2022-10-05T03:27:25.507Z,7.50
2022-10-05T03:30:05.087Z,8.20
2022-10-05T03:32:51.671Z,8.10
2022-10-05T03:35:30.242Z,7.30
2022-10-05T03:38:13.800Z,7.00
2022-10-05T03:40:56.145Z,7.60
2022-10-05T03:44:01.260Z,7.90
2022-10-05T03:46:50.496Z,8.20
2022-10-05T03:49:34.145Z,7.90
2022-10-05T03:52:14.301Z,8.50
2022-10-05T03:54:50.578Z,7.30
2022-10-05T03:57:26.401Z,7.60
2022-10-05T04:00:05.153Z,8.20
2022-10-05T04:02:51.713Z,7.50
2022-10-05T04:05:31.541Z,7.30
2022-10-05T04:08:10.635Z,7.50
2022-10-05T04:10:50.570Z,7.60
2022-10-05T04:13:31.050Z,7.80
2022-10-05T04:16:09.873Z,7.40
2022-10-05T04:18:49.813Z,9.40
2022-10-05T04:21:26.797Z,9.70
2022-10-05T04:24:05.049Z,7.90
2022-10-05T04:26:46.247Z,8.00
2022-10-05T04:29:30.904Z,7.60
2022-10-05T04:32:28.228Z,7.00
2022-10-05T04:35:20.968Z,7.60
2022-10-05T04:38:05.073Z,8.20
2022-10-05T04:40:52.204Z,7.00
2022-10-05T04:43:35.658Z,7.50
2022-10-05T04:46:22.850Z,6.60
2022-10-05T04:49:21.985Z,7.90
2022-10-05T04:52:07.925Z,7.80
2022-10-05T04:54:54.358Z,8.10
2022-10-05T04:57:36.290Z,7.40
2022-10-05T05:00:20.827Z,7.50
2022-10-05T05:03:17.879Z,6.20
2022-10-05T05:06:16.780Z,6.40
2022-10-05T05:09:26.708Z,7.60
2022-10-05T05:12:21.171Z,7.20
2022-10-05T05:15:17.640Z,7.90
2022-10-05T05:18:08.400Z,8.10
2022-10-05T05:20:55.471Z,7.40
2022-10-05T05:23:35.949Z,7.60
2022-10-05T05:26:18.759Z,7.50
2022-10-05T05:29:00.905Z,7.00
2022-10-05T05:31:45.395Z,7.70
2022-10-05T05:34:37.310Z,8.10
2022-10-05T05:37:21.344Z,7.20
2022-10-05T05:40:05.892Z,7.40
2022-10-05T05:42:49.100Z,7.00
2022-10-05T05:45:29.784Z,7.70
2022-10-05T05:48:11.168Z,7.90
2022-10-05T05:50:57.774Z,7.50
2022-10-05T05:53:38.965Z,6.70
2022-10-05T05:56:15.361Z,8.40
2022-10-05T05:58:55.858Z,7.70
2022-10-05T06:01:34.364Z,7.60
2022-10-05T06:04:18.030Z,7.90
2022-10-05T06:06:54.345Z,6.40
2022-10-05T06:09:35.152Z,6.90
2022-10-05T06:12:30.795Z,7.30
2022-10-05T06:15:22.966Z,7.00
2022-10-05T06:17:59.088Z,7.10
2022-10-05T06:20:41.599Z,7.20
2022-10-05T06:23:41.689Z,7.50
2022-10-05T06:26:30.026Z,6.70
2022-10-05T06:31:59.271Z,6.90
2022-10-05T06:34:52.910Z,7.70
2022-10-05T06:37:40.402Z,7.60
2022-10-05T06:40:30.531Z,6.60
2022-10-05T06:43:16.702Z,7.00
2022-10-05T06:46:20.594Z,7.40
2022-10-05T06:49:20.564Z,8.00
2022-10-05T06:52:02.771Z,7.10
2022-10-05T06:54:49.868Z,7.40
2022-10-05T06:57:45.010Z,6.90
2022-10-05T07:00:25.196Z,6.50
2022-10-05T07:03:06.957Z,7.10
2022-10-05T07:05:53.716Z,7.70
2022-10-05T07:08:37.827Z,7.40
2022-10-05T07:11:25.256Z,6.90
2022-10-05T07:14:13.219Z,6.90
2022-10-05T07:17:03.307Z,8.10
2022-10-05T07:19:47.999Z,7.20
2022-10-05T07:22:37.496Z,6.80
2022-10-05T07:25:37.689Z,6.50
2022-10-05T07:28:15.666Z,6.80
2022-10-05T07:30:57.035Z,6.80
2022-10-05T07:33:36.290Z,7.10
2022-10-05T07:36:45.613Z,7.10
2022-10-05T07:39:42.062Z,6.60
2022-10-05T07:42:33.468Z,6.10
2022-10-05T07:45:19.306Z,6.10
2022-10-05T07:47:57.238Z,6.20
2022-10-05T07:50:37.550Z,6.40
2022-10-05T07:53:18.493Z,6.90
2022-10-05T07:55:56.521Z,6.10
2022-10-05T07:58:34.642Z,6.20
2022-10-05T08:01:19.594Z,6.20
2022-10-05T08:04:02.919Z,6.40
2022-10-05T08:06:52.017Z,5.80
2022-10-05T08:09:43.421Z,6.20
2022-10-05T08:12:36.480Z,5.40
2022-10-05T08:15:16.743Z,5.90
2022-10-05T08:17:57.519Z,6.20
2022-10-05T08:20:49.461Z,5.90
2022-10-05T08:23:27.469Z,6.00
2022-10-05T08:26:23.614Z,5.30
2022-10-05T08:29:13.759Z,5.50
2022-10-05T08:31:51.498Z,5.40
2022-10-05T08:34:32.405Z,6.50
2022-10-05T08:37:23.198Z,5.40
2022-10-05T08:40:06.251Z,5.80
2022-10-05T08:43:08.010Z,5.50
2022-10-05T08:46:10.728Z,5.30
2022-10-05T08:49:16.290Z,4.40
2022-10-05T08:52:14.641Z,5.30
2022-10-05T08:58:22.925Z,5.10
2022-10-05T09:01:03.701Z,5.60
2022-10-05T09:04:21.960Z,4.60
2022-10-05T09:07:16.790Z,5.30
2022-10-05T09:10:43.079Z,5.40
2022-10-05T09:13:47.149Z,5.10
2022-10-05T09:16:40.288Z,5.10
2022-10-05T09:19:50.584Z,5.30
2022-10-05T09:22:38.642Z,4.30
2022-10-05T09:25:35.457Z,4.60
2022-10-05T09:28:25.104Z,5.50
2022-10-05T09:31:09.763Z,4.60
2022-10-05T09:34:41.599Z,4.60
2022-10-05T09:37:35.009Z,4.70
2022-10-05T09:40:45.097Z,4.90
2022-10-05T09:43:54.914Z,4.30
2022-10-05T09:47:03.039Z,4.30
2022-10-05T09:50:05.974Z,4.60
2022-10-05T09:53:12.667Z,5.20
2022-10-05T09:56:05.687Z,4.20
2022-10-05T09:59:06.171Z,4.10
2022-10-05T10:01:58.544Z,4.80
2022-10-05T10:04:45.411Z,4.20
2022-10-05T10:07:50.989Z,4.40
2022-10-05T10:10:52.770Z,4.80
2022-10-05T10:13:57.247Z,4.80
2022-10-05T10:16:50.087Z,4.10
2022-10-05T10:20:02.182Z,4.80
2022-10-05T10:23:25.620Z,4.30
2022-10-05T10:26:26.998Z,4.30
2022-10-05T10:29:21.915Z,4.90
2022-10-05T10:32:21.697Z,4.80
2022-10-05T10:35:19.201Z,4.70
2022-10-05T10:38:40.578Z,4.60
2022-10-05T10:41:54.892Z,4.60
2022-10-05T10:45:07.245Z,4.80
2022-10-05T10:47:52.372Z,4.30
2022-10-05T10:51:01.588Z,4.00
2022-10-05T10:54:03.041Z,4.10
2022-10-05T10:56:59.976Z,4.20
2022-10-05T11:00:15.980Z,3.90
2022-10-05T11:03:08.995Z,4.20
2022-10-05T11:06:12.239Z,4.20
2022-10-05T11:09:11.297Z,3.70
2022-10-05T11:12:14.171Z,3.90
2022-10-05T11:15:18.483Z,4.30
2022-10-05T11:18:07.874Z,4.00
2022-10-05T11:21:12.677Z,3.70
2022-10-05T11:24:17.026Z,3.70
2022-10-05T11:27:12.083Z,4.20
2022-10-05T11:30:14.618Z,3.70
2022-10-05T11:33:12.293Z,4.10
2022-10-05T11:36:10.596Z,14.80
2022-10-05T11:39:09.333Z,4.40
2022-10-05T11:42:12.800Z,3.90
2022-10-05T11:45:23.522Z,3.80
2022-10-05T11:48:29.859Z,4.70
2022-10-05T11:51:34.688Z,3.20
2022-10-05T11:54:52.196Z,3.80
2022-10-05T11:57:34.518Z,3.90
2022-10-05T12:00:17.793Z,4.20
2022-10-05T12:03:23.643Z,3.80
2022-10-05T12:06:07.981Z,4.10
2022-10-05T12:08:52.589Z,4.20
2022-10-05T12:11:48.961Z,4.40
2022-10-05T12:14:33.883Z,4.70
2022-10-05T12:17:16.026Z,4.80
2022-10-05T12:19:55.957Z,4.90
2022-10-05T12:22:43.464Z,4.30
2022-10-05T12:25:30.801Z,4.60
2022-10-05T12:28:10.819Z,4.80
2022-10-05T12:31:11.850Z,5.30
2022-10-05T12:33:53.863Z,5.10
2022-10-05T12:36:52.546Z,4.60
2022-10-05T12:39:41.071Z,5.50
2022-10-05T12:42:29.802Z,5.30
2022-10-05T12:45:25.775Z,4.60
2022-10-05T12:48:15.893Z,4.80
2022-10-05T12:50:56.905Z,5.10
2022-10-05T12:53:49.200Z,6.00
2022-10-05T12:56:39.051Z,4.60
2022-10-05T12:59:21.701Z,4.90
2022-10-05T13:02:30.255Z,5.10
2022-10-05T13:05:18.499Z,5.10
2022-10-05T13:08:22.971Z,5.20
2022-10-05T13:11:03.176Z,5.30
2022-10-05T13:13:58.102Z,5.40
2022-10-05T13:16:39.267Z,5.20
2022-10-05T13:19:40.953Z,5.20
2022-10-05T13:22:33.698Z,5.60
2022-10-05T13:25:27.674Z,5.20
2022-10-05T13:28:16.887Z,5.00
2022-10-05T13:30:59.934Z,4.90
2022-10-05T13:33:55.338Z,5.10
2022-10-05T13:36:40.086Z,5.20
2022-10-05T13:39:26.471Z,6.00
2022-10-05T13:42:06.399Z,5.80
2022-10-05T13:44:50.116Z,5.40
2022-10-05T13:47:32.482Z,5.50
2022-10-05T13:50:09.086Z,5.20
2022-10-05T13:52:57.100Z,5.30
2022-10-05T13:55:45.411Z,5.80
2022-10-05T13:58:34.367Z,5.50
2022-10-05T14:04:04.378Z,5.80
2022-10-05T14:06:40.694Z,4.60
2022-10-05T14:09:29.422Z,5.80
2022-10-05T14:12:20.760Z,5.70
2022-10-05T14:14:56.039Z,6.20
2022-10-05T14:17:44.345Z,5.20
2022-10-05T14:20:29.100Z,4.90
2022-10-05T14:23:26.302Z,5.50
2022-10-05T14:26:04.124Z,5.40
2022-10-05T14:28:44.052Z,4.80
2022-10-05T14:31:29.039Z,4.60
2022-10-05T14:34:27.661Z,5.20
2022-10-05T14:39:42.415Z,5.80
2022-10-05T14:42:21.447Z,5.70
2022-10-05T14:45:16.680Z,5.10
2022-10-05T14:47:53.638Z,5.40
2022-10-05T14:50:30.170Z,5.50
2022-10-05T14:53:18.670Z,5.50
2022-10-05T14:56:20.949Z,5.50
2022-10-05T14:59:10.360Z,5.40
2022-10-05T15:01:54.189Z,5.40
2022-10-05T15:04:39.732Z,5.50
2022-10-05T15:07:24.514Z,5.40
2022-10-05T15:10:30.505Z,5.80
2022-10-05T15:13:14.005Z,5.50
2022-10-05T15:15:56.113Z,5.30
2022-10-05T15:18:36.662Z,5.50
2022-10-05T15:21:32.412Z,5.30
2022-10-05T15:24:28.291Z,5.20
2022-10-05T15:27:05.527Z,5.10
2022-10-05T15:29:55.174Z,5.50
2022-10-05T15:32:45.401Z,4.70
2022-10-05T15:35:40.632Z,5.10
2022-10-05T15:38:22.735Z,6.30
2022-10-05T15:41:06.253Z,5.20
2022-10-05T15:43:50.657Z,5.10
2022-10-05T15:46:34.686Z,6.40
2022-10-05T15:49:25.166Z,5.70
2022-10-05T15:52:07.656Z,5.00
2022-10-05T15:55:13.186Z,6.30
2022-10-05T15:57:55.388Z,6.00
2022-10-05T16:00:31.765Z,5.80
2022-10-05T16:03:15.069Z,6.60
2022-10-05T16:06:10.860Z,6.30
2022-10-05T16:09:12.432Z,6.10
2022-10-05T16:12:04.017Z,5.60
2022-10-05T16:14:49.911Z,5.20
2022-10-05T16:17:38.279Z,5.60
2022-10-05T16:20:27.281Z,6.00
2022-10-05T16:23:10.464Z,5.80
2022-10-05T16:25:55.702Z,6.50
2022-10-05T16:28:39.578Z,6.50
2022-10-05T16:31:19.490Z,6.40
2022-10-05T16:34:02.303Z,6.20
2022-10-05T16:36:50.069Z,8.00
2022-10-05T16:39:48.905Z,8.20
2022-10-05T16:42:36.811Z,7.00
2022-10-05T16:45:27.075Z,7.60
2022-10-05T16:48:10.156Z,7.80
2022-10-05T16:50:56.272Z,8.10
2022-10-05T16:53:35.202Z,8.30
2022-10-05T16:56:16.509Z,7.80
2022-10-05T16:59:04.512Z,8.00
2022-10-05T17:01:51.696Z,7.20
2022-10-05T17:04:38.957Z,7.20
2022-10-05T17:07:29.880Z,6.90
2022-10-05T17:10:49.824Z,6.90
2022-10-05T17:13:40.236Z,7.40
2022-10-05T17:16:24.153Z,8.00
2022-10-05T17:19:20.677Z,7.10
2022-10-05T17:22:00.977Z,6.90
2022-10-05T17:24:54.433Z,6.60
2022-10-05T17:27:36.884Z,18.70
2022-10-05T17:30:40.242Z,7.90
2022-10-05T17:33:26.688Z,8.00
2022-10-05T17:36:18.327Z,6.90
2022-10-05T17:39:12.723Z,7.60
2022-10-05T17:41:47.141Z,6.30
2022-10-05T17:44:31.161Z,7.00
2022-10-05T17:47:09.291Z,8.50
2022-10-05T17:50:16.818Z,9.40
2022-10-05T17:53:40.597Z,9.70
2022-10-05T17:56:14.116Z,8.10
2022-10-05T17:59:02.380Z,9.60
2022-10-05T18:01:38.688Z,9.30
2022-10-05T18:05:02.287Z,11.90
2022-10-05T18:07:36.829Z,6.20
2022-10-05T18:10:29.572Z,9.00
2022-10-05T18:13:22.526Z,7.90
2022-10-05T18:15:56.039Z,10.20
2022-10-05T18:19:01.369Z,8.00
2022-10-05T18:21:39.594Z,8.60
2022-10-05T18:24:35.320Z,7.10
2022-10-05T18:27:32.542Z,6.80
2022-10-05T18:30:21.252Z,6.50
2022-10-05T18:33:19.932Z,6.40
2022-10-05T18:36:04.968Z,7.20
2022-10-05T18:38:51.523Z,6.50
2022-10-05T18:41:41.798Z,7.40
2022-10-05T18:44:37.010Z,7.00
2022-10-05T18:47:20.171Z,6.00
2022-10-05T18:50:04.926Z,5.90
2022-10-05T18:52:59.348Z,6.90
2022-10-05T18:55:41.477Z,6.60
2022-10-05T18:58:22.807Z,6.20
2022-10-05T19:01:27.654Z,6.60
2022-10-05T19:04:18.339Z,10.80
2022-10-05T19:06:59.497Z,7.40
2022-10-05T19:09:53.229Z,6.70
2022-10-05T19:12:41.361Z,6.30
2022-10-05T19:18:07.579Z,6.80
2022-10-05T19:20:50.773Z,6.10
2022-10-05T19:23:47.016Z,6.50
2022-10-05T19:26:32.790Z,6.20
2022-10-05T19:29:23.115Z,6.20
2022-10-05T19:32:03.125Z,6.40
2022-10-05T19:34:50.461Z,5.90
2022-10-05T19:37:32.740Z,6.00
2022-10-05T19:40:16.845Z,6.70
2022-10-05T19:43:03.436Z,6.10
2022-10-05T19:45:41.071Z,5.80
2022-10-05T19:48:28.514Z,5.60
2022-10-05T19:51:28.325Z,6.50
2022-10-05T19:54:15.822Z,5.50
2022-10-05T19:56:53.822Z,5.80
2022-10-05T19:59:31.726Z,5.90
2022-10-05T20:02:05.743Z,6.10
2022-10-05T20:04:41.241Z,6.50
2022-10-05T20:07:22.755Z,6.40
2022-10-05T20:09:59.815Z,6.20
2022-10-05T20:12:59.695Z,5.60
2022-10-05T20:15:53.328Z,6.50
2022-10-05T20:19:08.163Z,7.00
2022-10-05T20:21:50.851Z,6.00
2022-10-05T20:24:25.979Z,6.70
2022-10-05T20:27:06.483Z,6.10
2022-10-05T20:29:42.678Z,6.30
2022-10-05T20:32:18.364Z,6.40
2022-10-05T20:34:56.070Z,7.00
2022-10-05T20:37:29.483Z,6.70
2022-10-05T20:40:03.479Z,6.50
2022-10-05T20:42:37.876Z,6.60
2022-10-05T20:45:14.509Z,6.50
2022-10-05T20:47:48.212Z,6.90
2022-10-05T20:50:22.540Z,6.10
2022-10-05T20:53:09.628Z,6.00
2022-10-05T20:55:45.172Z,6.30
2022-10-05T20:58:19.627Z,6.10
2022-10-05T21:01:10.750Z,6.60
2022-10-05T21:03:44.286Z,6.30
2022-10-05T21:06:18.713Z,6.40
2022-10-05T21:09:02.997Z,6.10
2022-10-05T21:11:36.744Z,6.20
2022-10-05T21:14:10.413Z,6.40
2022-10-05T21:16:46.085Z,6.70
2022-10-05T21:19:19.744Z,6.90
2022-10-05T21:21:54.650Z,6.50
2022-10-05T21:24:28.781Z,6.70
2022-10-05T21:27:02.258Z,6.50
2022-10-05T21:29:36.850Z,6.30
2022-10-05T21:32:13.403Z,6.60
2022-10-05T21:34:47.084Z,6.20
2022-10-05T21:37:21.043Z,6.90
2022-10-05T21:39:54.625Z,6.70
2022-10-05T21:42:28.102Z,6.30
2022-10-05T21:45:01.642Z,6.90
2022-10-05T21:47:35.286Z,6.60
2022-10-05T21:50:10.662Z,6.10
2022-10-05T21:52:44.180Z,6.20
2022-10-05T21:55:18.743Z,6.10
2022-10-05T21:57:52.837Z,6.10
2022-10-05T22:00:26.385Z,6.30
2022-10-05T22:03:00.104Z,7.80
2022-10-05T22:05:34.061Z,6.60
2022-10-05T22:08:08.169Z,7.30
2022-10-05T22:10:41.553Z,7.00
2022-10-05T22:13:14.793Z,6.80
2022-10-05T22:15:48.315Z,7.20
2022-10-05T22:18:22.323Z,6.50
2022-10-05T22:20:55.865Z,7.40
2022-10-05T22:23:29.462Z,7.10
2022-10-05T22:26:03.279Z,6.90
2022-10-05T22:28:38.893Z,7.80
2022-10-05T22:31:13.648Z,6.80
2022-10-05T22:33:47.382Z,6.10
2022-10-05T22:36:21.060Z,7.10
2022-10-05T22:38:55.171Z,6.90
2022-10-05T22:41:28.800Z,6.90
2022-10-05T22:44:03.123Z,7.50
2022-10-05T22:46:36.611Z,7.60
2022-10-05T22:49:09.863Z,7.20
2022-10-05T22:51:43.538Z,6.60
2022-10-05T22:54:17.262Z,7.20
2022-10-05T22:56:50.935Z,6.50
2022-10-05T22:59:26.247Z,6.90
2022-10-05T23:01:59.572Z,8.00
2022-10-05T23:04:33.258Z,7.20
2022-10-05T23:07:07.172Z,7.30
2022-10-05T23:09:40.697Z,6.80
2022-10-05T23:12:15.328Z,6.80
2022-10-05T23:14:48.879Z,7.30
2022-10-05T23:17:25.253Z,7.00
2022-10-05T23:19:58.793Z,6.70
2022-10-05T23:22:32.594Z,6.90
2022-10-05T23:25:06.249Z,6.60
2022-10-05T23:27:44.555Z,6.20
2022-10-05T23:30:18.258Z,6.20
2022-10-05T23:32:52.585Z,6.90
2022-10-05T23:35:26.104Z,6.50
2022-10-05T23:37:59.649Z,6.10
2022-10-05T23:40:33.391Z,5.70
2022-10-05T23:43:07.073Z,6.30
2022-10-05T23:45:49.895Z,6.30
2022-10-05T23:48:27.545Z,6.40
2022-10-05T23:51:02.280Z,6.60
2022-10-05T23:53:35.949Z,6.40
2022-10-05T23:56:18.670Z,6.10
2022-10-05T23:58:55.239Z,6.30
